sensor_id;sensor_type;location;lat;lon;timestamp;P1;durP1;ratioP1;P2;durP2;ratioP2
43311;SDS011;30041;48.300;16.352;2023-09-12T00:00:06;8.55;;;4.63;;
43311;SDS011;30041;48.300;16.352;2023-09-12T00:02:31;7.10;;;5.20;;
43311;SDS011;30041;48.300;16.352;2023-09-12T00:04:57;6.07;;;5.03;;
43311;SDS011;30041;48.300;16.352;2023-09-12T00:07:22;6.47;;;5.20;;
43311;SDS011;30041;48.300;16.352;2023-09-12T00:09:48;6.30;;;5.18;;
43311;SDS011;30041;48.300;16.352;2023-09-12T00:12:14;8.52;;;5.07;;
43311;SDS011;30041;48.300;16.352;2023-09-12T00:14:40;6.07;;;5.18;;
43311;SDS011;30041;48.300;16.352;2023-09-12T00:17:05;6.97;;;5.43;;
43311;SDS011;30041;48.300;16.352;2023-09-12T00:19:31;9.30;;;5.22;;
43311;SDS011;30041;48.300;16.352;2023-09-12T00:21:56;6.22;;;5.07;;
43311;SDS011;30041;48.300;16.352;2023-09-12T00:24:22;6.07;;;5.30;;
43311;SDS011;30041;48.300;16.352;2023-09-12T00:26:47;7.53;;;5.47;;
43311;SDS011;30041;48.300;16.352;2023-09-12T00:29:13;6.85;;;5.30;;
43311;SDS011;30041;48.300;16.352;2023-09-12T00:31:38;9.07;;;5.10;;
43311;SDS011;30041;48.300;16.352;2023-09-12T00:34:03;6.40;;;4.80;;
43311;SDS011;30041;48.300;16.352;2023-09-12T00:36:29;6.45;;;5.15;;
43311;SDS011;30041;48.300;16.352;2023-09-12T00:38:54;6.68;;;4.93;;
43311;SDS011;30041;48.300;16.352;2023-09-12T00:41:20;5.70;;;4.55;;
43311;SDS011;30041;48.300;16.352;2023-09-12T00:43:45;7.22;;;5.05;;
43311;SDS011;30041;48.300;16.352;2023-09-12T00:46:11;7.03;;;5.07;;
43311;SDS011;30041;48.300;16.352;2023-09-12T00:48:43;6.72;;;5.22;;
43311;SDS011;30041;48.300;16.352;2023-09-12T00:51:09;6.95;;;4.82;;
43311;SDS011;30041;48.300;16.352;2023-09-12T00:53:35;6.57;;;5.03;;
43311;SDS011;30041;48.300;16.352;2023-09-12T00:56:01;6.35;;;4.97;;
43311;SDS011;30041;48.300;16.352;2023-09-12T00:58:26;6.13;;;5.00;;
43311;SDS011;30041;48.300;16.352;2023-09-12T01:00:53;6.38;;;4.95;;
43311;SDS011;30041;48.300;16.352;2023-09-12T01:03:18;6.43;;;5.00;;
43311;SDS011;30041;48.300;16.352;2023-09-12T01:05:44;5.75;;;4.70;;
43311;SDS011;30041;48.300;16.352;2023-09-12T01:08:11;5.75;;;5.15;;
43311;SDS011;30041;48.300;16.352;2023-09-12T01:10:37;5.80;;;4.93;;
43311;SDS011;30041;48.300;16.352;2023-09-12T01:13:02;6.63;;;4.82;;
43311;SDS011;30041;48.300;16.352;2023-09-12T01:15:28;7.22;;;4.93;;
43311;SDS011;30041;48.300;16.352;2023-09-12T01:17:54;5.95;;;5.10;;
43311;SDS011;30041;48.300;16.352;2023-09-12T01:20:27;6.47;;;5.43;;
43311;SDS011;30041;48.300;16.352;2023-09-12T01:26:01;5.57;;;4.95;;
43311;SDS011;30041;48.300;16.352;2023-09-12T01:28:48;6.70;;;5.03;;
43311;SDS011;30041;48.300;16.352;2023-09-12T01:31:16;5.30;;;4.80;;
43311;SDS011;30041;48.300;16.352;2023-09-12T01:33:42;6.60;;;5.00;;
43311;SDS011;30041;48.300;16.352;2023-09-12T01:36:09;5.97;;;4.97;;
43311;SDS011;30041;48.300;16.352;2023-09-12T01:38:35;6.00;;;4.80;;
43311;SDS011;30041;48.300;16.352;2023-09-12T01:41:01;7.50;;;5.05;;
43311;SDS011;30041;48.300;16.352;2023-09-12T01:43:27;6.05;;;5.00;;
43311;SDS011;30041;48.300;16.352;2023-09-12T01:45:55;7.32;;;5.13;;
43311;SDS011;30041;48.300;16.352;2023-09-12T01:48:23;7.18;;;5.03;;
43311;SDS011;30041;48.300;16.352;2023-09-12T01:50:52;6.90;;;5.40;;
43311;SDS011;30041;48.300;16.352;2023-09-12T01:53:18;7.28;;;4.72;;
43311;SDS011;30041;48.300;16.352;2023-09-12T01:55:45;6.43;;;4.70;;
43311;SDS011;30041;48.300;16.352;2023-09-12T01:58:12;6.85;;;4.88;;
43311;SDS011;30041;48.300;16.352;2023-09-12T02:00:39;6.32;;;4.85;;
43311;SDS011;30041;48.300;16.352;2023-09-12T02:03:05;5.47;;;4.82;;
43311;SDS011;30041;48.300;16.352;2023-09-12T02:05:31;6.78;;;5.05;;
43311;SDS011;30041;48.300;16.352;2023-09-12T02:07:56;5.53;;;5.03;;
43311;SDS011;30041;48.300;16.352;2023-09-12T02:10:22;5.88;;;4.88;;
43311;SDS011;30041;48.300;16.352;2023-09-12T02:12:47;5.85;;;4.97;;
43311;SDS011;30041;48.300;16.352;2023-09-12T02:15:13;5.65;;;4.70;;
43311;SDS011;30041;48.300;16.352;2023-09-12T02:17:38;7.07;;;5.35;;
43311;SDS011;30041;48.300;16.352;2023-09-12T02:20:05;7.85;;;4.78;;
43311;SDS011;30041;48.300;16.352;2023-09-12T02:22:32;7.38;;;5.22;;
43311;SDS011;30041;48.300;16.352;2023-09-12T02:24:58;6.75;;;5.38;;
43311;SDS011;30041;48.300;16.352;2023-09-12T02:27:23;7.40;;;5.43;;
43311;SDS011;30041;48.300;16.352;2023-09-12T02:29:48;6.72;;;5.18;;
43311;SDS011;30041;48.300;16.352;2023-09-12T02:32:14;7.15;;;5.10;;
43311;SDS011;30041;48.300;16.352;2023-09-12T02:34:39;5.85;;;5.25;;
43311;SDS011;30041;48.300;16.352;2023-09-12T02:37:05;7.03;;;4.78;;
43311;SDS011;30041;48.300;16.352;2023-09-12T02:39:30;6.18;;;5.05;;
43311;SDS011;30041;48.300;16.352;2023-09-12T02:41:56;6.57;;;5.28;;
43311;SDS011;30041;48.300;16.352;2023-09-12T02:44:21;7.47;;;5.20;;
43311;SDS011;30041;48.300;16.352;2023-09-12T02:46:47;5.88;;;5.22;;
43311;SDS011;30041;48.300;16.352;2023-09-12T02:49:12;5.68;;;4.75;;
43311;SDS011;30041;48.300;16.352;2023-09-12T02:51:38;9.93;;;5.25;;
43311;SDS011;30041;48.300;16.352;2023-09-12T02:54:04;6.03;;;5.15;;
43311;SDS011;30041;48.300;16.352;2023-09-12T02:56:29;5.90;;;5.22;;
43311;SDS011;30041;48.300;16.352;2023-09-12T02:58:55;6.78;;;5.20;;
43311;SDS011;30041;48.300;16.352;2023-09-12T03:01:20;7.78;;;5.40;;
43311;SDS011;30041;48.300;16.352;2023-09-12T03:03:46;7.68;;;4.80;;
43311;SDS011;30041;48.300;16.352;2023-09-12T03:06:11;7.75;;;5.00;;
43311;SDS011;30041;48.300;16.352;2023-09-12T03:08:37;5.63;;;4.85;;
43311;SDS011;30041;48.300;16.352;2023-09-12T03:11:03;6.13;;;4.90;;
43311;SDS011;30041;48.300;16.352;2023-09-12T03:13:28;8.38;;;5.55;;
43311;SDS011;30041;48.300;16.352;2023-09-12T03:15:54;5.40;;;4.85;;
43311;SDS011;30041;48.300;16.352;2023-09-12T03:18:19;7.15;;;5.55;;
43311;SDS011;30041;48.300;16.352;2023-09-12T03:20:45;7.22;;;5.25;;
43311;SDS011;30041;48.300;16.352;2023-09-12T03:23:10;6.82;;;5.20;;
43311;SDS011;30041;48.300;16.352;2023-09-12T03:25:36;6.22;;;5.22;;
43311;SDS011;30041;48.300;16.352;2023-09-12T03:28:06;5.85;;;5.20;;
43311;SDS011;30041;48.300;16.352;2023-09-12T03:30:36;6.60;;;5.22;;
43311;SDS011;30041;48.300;16.352;2023-09-12T03:33:02;6.88;;;5.60;;
43311;SDS011;30041;48.300;16.352;2023-09-12T03:35:28;6.78;;;5.50;;
43311;SDS011;30041;48.300;16.352;2023-09-12T03:37:54;7.65;;;5.05;;
43311;SDS011;30041;48.300;16.352;2023-09-12T03:40:20;7.45;;;5.45;;
43311;SDS011;30041;48.300;16.352;2023-09-12T03:42:46;5.95;;;5.00;;
43311;SDS011;30041;48.300;16.352;2023-09-12T03:45:11;6.30;;;5.13;;
43311;SDS011;30041;48.300;16.352;2023-09-12T03:47:37;6.88;;;5.30;;
43311;SDS011;30041;48.300;16.352;2023-09-12T03:50:02;6.60;;;5.57;;
43311;SDS011;30041;48.300;16.352;2023-09-12T03:52:28;7.05;;;5.40;;
43311;SDS011;30041;48.300;16.352;2023-09-12T03:54:53;7.57;;;5.53;;
43311;SDS011;30041;48.300;16.352;2023-09-12T03:57:19;6.10;;;5.50;;
43311;SDS011;30041;48.300;16.352;2023-09-12T03:59:45;6.63;;;5.03;;
43311;SDS011;30041;48.300;16.352;2023-09-12T04:02:10;6.57;;;5.20;;
43311;SDS011;30041;48.300;16.352;2023-09-12T04:04:35;6.03;;;5.00;;
43311;SDS011;30041;48.300;16.352;2023-09-12T04:07:01;7.55;;;5.47;;
43311;SDS011;30041;48.300;16.352;2023-09-12T04:09:26;6.97;;;5.22;;
43311;SDS011;30041;48.300;16.352;2023-09-12T04:11:52;9.43;;;6.30;;
43311;SDS011;30041;48.300;16.352;2023-09-12T04:14:17;7.90;;;5.35;;
43311;SDS011;30041;48.300;16.352;2023-09-12T04:16:43;9.27;;;5.50;;
43311;SDS011;30041;48.300;16.352;2023-09-12T04:19:08;7.38;;;5.78;;
43311;SDS011;30041;48.300;16.352;2023-09-12T04:21:33;7.55;;;5.63;;
43311;SDS011;30041;48.300;16.352;2023-09-12T04:23:59;8.48;;;5.55;;
43311;SDS011;30041;48.300;16.352;2023-09-12T04:26:24;6.40;;;5.45;;
43311;SDS011;30041;48.300;16.352;2023-09-12T04:28:50;6.57;;;5.18;;
43311;SDS011;30041;48.300;16.352;2023-09-12T04:31:15;8.20;;;5.72;;
43311;SDS011;30041;48.300;16.352;2023-09-12T04:33:41;7.15;;;4.97;;
43311;SDS011;30041;48.300;16.352;2023-09-12T04:36:06;7.50;;;5.55;;
43311;SDS011;30041;48.300;16.352;2023-09-12T04:38:32;7.53;;;5.75;;
43311;SDS011;30041;48.300;16.352;2023-09-12T04:40:57;7.53;;;6.20;;
43311;SDS011;30041;48.300;16.352;2023-09-12T04:43:24;7.28;;;5.85;;
43311;SDS011;30041;48.300;16.352;2023-09-12T04:45:49;8.10;;;6.32;;
43311;SDS011;30041;48.300;16.352;2023-09-12T04:48:15;7.30;;;4.97;;
43311;SDS011;30041;48.300;16.352;2023-09-12T04:50:41;8.43;;;5.68;;
43311;SDS011;30041;48.300;16.352;2023-09-12T04:53:06;7.00;;;5.97;;
43311;SDS011;30041;48.300;16.352;2023-09-12T04:55:32;7.07;;;5.82;;
43311;SDS011;30041;48.300;16.352;2023-09-12T04:58:04;11.27;;;6.20;;
43311;SDS011;30041;48.300;16.352;2023-09-12T05:00:30;8.35;;;6.03;;
43311;SDS011;30041;48.300;16.352;2023-09-12T05:02:56;10.00;;;6.18;;
43311;SDS011;30041;48.300;16.352;2023-09-12T05:05:22;9.38;;;7.18;;
43311;SDS011;30041;48.300;16.352;2023-09-12T05:07:47;13.13;;;8.30;;
43311;SDS011;30041;48.300;16.352;2023-09-12T05:10:13;11.60;;;8.43;;
43311;SDS011;30041;48.300;16.352;2023-09-12T05:12:38;10.20;;;8.30;;
43311;SDS011;30041;48.300;16.352;2023-09-12T05:15:04;10.55;;;8.65;;
43311;SDS011;30041;48.300;16.352;2023-09-12T05:17:30;9.57;;;7.25;;
43311;SDS011;30041;48.300;16.352;2023-09-12T05:19:55;11.98;;;7.75;;
43311;SDS011;30041;48.300;16.352;2023-09-12T05:22:21;10.60;;;7.03;;
43311;SDS011;30041;48.300;16.352;2023-09-12T05:24:47;10.50;;;6.80;;
43311;SDS011;30041;48.300;16.352;2023-09-12T05:27:12;8.30;;;6.65;;
43311;SDS011;30041;48.300;16.352;2023-09-12T05:29:37;11.35;;;6.80;;
43311;SDS011;30041;48.300;16.352;2023-09-12T05:32:03;10.18;;;6.68;;
43311;SDS011;30041;48.300;16.352;2023-09-12T05:34:29;9.73;;;6.45;;
43311;SDS011;30041;48.300;16.352;2023-09-12T05:36:56;19.48;;;7.05;;
43311;SDS011;30041;48.300;16.352;2023-09-12T05:39:22;10.05;;;6.15;;
43311;SDS011;30041;48.300;16.352;2023-09-12T05:41:48;10.63;;;6.50;;
43311;SDS011;30041;48.300;16.352;2023-09-12T05:44:13;9.88;;;6.15;;
43311;SDS011;30041;48.300;16.352;2023-09-12T05:46:39;30.13;;;8.85;;
43311;SDS011;30041;48.300;16.352;2023-09-12T05:49:04;19.30;;;10.30;;
43311;SDS011;30041;48.300;16.352;2023-09-12T05:51:30;23.08;;;9.98;;
43311;SDS011;30041;48.300;16.352;2023-09-12T05:53:55;18.70;;;10.25;;
43311;SDS011;30041;48.300;16.352;2023-09-12T05:56:21;14.23;;;8.65;;
43311;SDS011;30041;48.300;16.352;2023-09-12T05:58:46;14.80;;;8.38;;
43311;SDS011;30041;48.300;16.352;2023-09-12T06:01:12;16.00;;;8.15;;
43311;SDS011;30041;48.300;16.352;2023-09-12T06:03:37;12.00;;;7.28;;
43311;SDS011;30041;48.300;16.352;2023-09-12T06:06:03;16.48;;;7.97;;
43311;SDS011;30041;48.300;16.352;2023-09-12T06:08:29;15.73;;;8.30;;
43311;SDS011;30041;48.300;16.352;2023-09-12T06:10:54;14.68;;;8.23;;
43311;SDS011;30041;48.300;16.352;2023-09-12T06:13:19;13.80;;;8.10;;
43311;SDS011;30041;48.300;16.352;2023-09-12T06:15:45;15.18;;;7.75;;
43311;SDS011;30041;48.300;16.352;2023-09-12T06:18:10;11.07;;;6.80;;
43311;SDS011;30041;48.300;16.352;2023-09-12T06:20:36;14.02;;;7.25;;
43311;SDS011;30041;48.300;16.352;2023-09-12T06:23:01;12.15;;;6.95;;
43311;SDS011;30041;48.300;16.352;2023-09-12T06:25:27;10.43;;;6.75;;
43311;SDS011;30041;48.300;16.352;2023-09-12T06:27:53;8.73;;;6.78;;
43311;SDS011;30041;48.300;16.352;2023-09-12T06:30:18;9.93;;;6.60;;
43311;SDS011;30041;48.300;16.352;2023-09-12T06:32:43;11.27;;;7.05;;
43311;SDS011;30041;48.300;16.352;2023-09-12T06:35:09;9.77;;;7.00;;
43311;SDS011;30041;48.300;16.352;2023-09-12T06:37:34;11.57;;;7.18;;
43311;SDS011;30041;48.300;16.352;2023-09-12T06:40:00;10.25;;;6.60;;
43311;SDS011;30041;48.300;16.352;2023-09-12T06:42:25;8.68;;;6.88;;
43311;SDS011;30041;48.300;16.352;2023-09-12T06:44:51;8.25;;;6.50;;
43311;SDS011;30041;48.300;16.352;2023-09-12T06:47:16;12.52;;;7.10;;
43311;SDS011;30041;48.300;16.352;2023-09-12T06:49:42;9.15;;;6.53;;
43311;SDS011;30041;48.300;16.352;2023-09-12T06:52:07;10.57;;;6.80;;
43311;SDS011;30041;48.300;16.352;2023-09-12T06:54:33;9.88;;;6.60;;
43311;SDS011;30041;48.300;16.352;2023-09-12T06:57:00;8.98;;;6.25;;
43311;SDS011;30041;48.300;16.352;2023-09-12T06:59:25;9.32;;;6.80;;
43311;SDS011;30041;48.300;16.352;2023-09-12T07:01:51;9.80;;;6.85;;
43311;SDS011;30041;48.300;16.352;2023-09-12T07:04:16;8.52;;;6.35;;
43311;SDS011;30041;48.300;16.352;2023-09-12T07:06:42;9.02;;;6.68;;
43311;SDS011;30041;48.300;16.352;2023-09-12T07:09:07;8.10;;;6.40;;
43311;SDS011;30041;48.300;16.352;2023-09-12T07:11:33;9.30;;;6.30;;
43311;SDS011;30041;48.300;16.352;2023-09-12T07:13:58;9.80;;;6.10;;
43311;SDS011;30041;48.300;16.352;2023-09-12T07:16:24;7.43;;;6.10;;
43311;SDS011;30041;48.300;16.352;2023-09-12T07:18:49;10.02;;;6.22;;
43311;SDS011;30041;48.300;16.352;2023-09-12T07:21:15;8.07;;;6.47;;
43311;SDS011;30041;48.300;16.352;2023-09-12T07:23:40;7.93;;;6.35;;
43311;SDS011;30041;48.300;16.352;2023-09-12T07:26:06;9.85;;;6.28;;
43311;SDS011;30041;48.300;16.352;2023-09-12T07:28:37;7.00;;;5.50;;
43311;SDS011;30041;48.300;16.352;2023-09-12T07:31:03;8.02;;;6.38;;
43311;SDS011;30041;48.300;16.352;2023-09-12T07:33:28;8.88;;;6.78;;
43311;SDS011;30041;48.300;16.352;2023-09-12T07:35:54;9.25;;;6.28;;
43311;SDS011;30041;48.300;16.352;2023-09-12T07:38:20;8.65;;;6.28;;
43311;SDS011;30041;48.300;16.352;2023-09-12T07:40:46;7.60;;;6.03;;
43311;SDS011;30041;48.300;16.352;2023-09-12T07:43:11;7.20;;;5.88;;
43311;SDS011;30041;48.300;16.352;2023-09-12T07:45:37;9.52;;;6.05;;
43311;SDS011;30041;48.300;16.352;2023-09-12T07:48:04;6.93;;;6.22;;
43311;SDS011;30041;48.300;16.352;2023-09-12T07:50:33;6.88;;;5.90;;
43311;SDS011;30041;48.300;16.352;2023-09-12T07:52:59;6.82;;;6.03;;
43311;SDS011;30041;48.300;16.352;2023-09-12T07:55:27;7.38;;;6.57;;
43311;SDS011;30041;48.300;16.352;2023-09-12T07:57:53;7.22;;;5.85;;
43311;SDS011;30041;48.300;16.352;2023-09-12T08:00:18;8.20;;;6.18;;
43311;SDS011;30041;48.300;16.352;2023-09-12T08:02:44;9.65;;;6.65;;
43311;SDS011;30041;48.300;16.352;2023-09-12T08:05:09;8.27;;;6.20;;
43311;SDS011;30041;48.300;16.352;2023-09-12T08:07:36;8.85;;;5.88;;
43311;SDS011;30041;48.300;16.352;2023-09-12T08:10:01;8.55;;;6.10;;
43311;SDS011;30041;48.300;16.352;2023-09-12T08:12:27;8.50;;;6.20;;
43311;SDS011;30041;48.300;16.352;2023-09-12T08:14:53;6.93;;;5.95;;
43311;SDS011;30041;48.300;16.352;2023-09-12T08:17:20;7.43;;;5.97;;
43311;SDS011;30041;48.300;16.352;2023-09-12T08:19:46;12.40;;;6.00;;
43311;SDS011;30041;48.300;16.352;2023-09-12T08:22:11;7.20;;;6.35;;
43311;SDS011;30041;48.300;16.352;2023-09-12T08:24:37;7.07;;;6.38;;
43311;SDS011;30041;48.300;16.352;2023-09-12T08:27:03;6.53;;;5.85;;
43311;SDS011;30041;48.300;16.352;2023-09-12T08:29:29;7.22;;;6.18;;
43311;SDS011;30041;48.300;16.352;2023-09-12T08:31:55;7.55;;;6.05;;
43311;SDS011;30041;48.300;16.352;2023-09-12T08:34:21;7.25;;;6.20;;
43311;SDS011;30041;48.300;16.352;2023-09-12T08:36:47;6.85;;;5.60;;
43311;SDS011;30041;48.300;16.352;2023-09-12T08:39:16;8.52;;;6.63;;
43311;SDS011;30041;48.300;16.352;2023-09-12T08:41:43;6.80;;;6.10;;
43311;SDS011;30041;48.300;16.352;2023-09-12T08:44:09;9.18;;;7.07;;
43311;SDS011;30041;48.300;16.352;2023-09-12T08:46:35;13.05;;;8.18;;
43311;SDS011;30041;48.300;16.352;2023-09-12T08:49:00;10.63;;;6.38;;
43311;SDS011;30041;48.300;16.352;2023-09-12T08:51:26;12.70;;;7.90;;
43311;SDS011;30041;48.300;16.352;2023-09-12T08:53:51;10.30;;;7.03;;
43311;SDS011;30041;48.300;16.352;2023-09-12T08:56:17;9.82;;;7.35;;
43311;SDS011;30041;48.300;16.352;2023-09-12T08:58:44;11.93;;;6.88;;
43311;SDS011;30041;48.300;16.352;2023-09-12T09:01:13;8.73;;;6.75;;
43311;SDS011;30041;48.300;16.352;2023-09-12T09:03:41;9.02;;;6.75;;
43311;SDS011;30041;48.300;16.352;2023-09-12T09:06:08;9.77;;;6.90;;
43311;SDS011;30041;48.300;16.352;2023-09-12T09:08:35;11.82;;;7.57;;
43311;SDS011;30041;48.300;16.352;2023-09-12T09:11:01;9.68;;;7.32;;
43311;SDS011;30041;48.300;16.352;2023-09-12T09:13:27;10.88;;;6.78;;
43311;SDS011;30041;48.300;16.352;2023-09-12T09:19:01;9.57;;;6.80;;
43311;SDS011;30041;48.300;16.352;2023-09-12T09:21:30;12.65;;;6.97;;
43311;SDS011;30041;48.300;16.352;2023-09-12T09:23:58;8.43;;;6.50;;
43311;SDS011;30041;48.300;16.352;2023-09-12T09:26:25;7.10;;;6.32;;
43311;SDS011;30041;48.300;16.352;2023-09-12T09:31:31;8.55;;;6.30;;
43311;SDS011;30041;48.300;16.352;2023-09-12T09:33:58;10.93;;;7.07;;
43311;SDS011;30041;48.300;16.352;2023-09-12T09:36:24;9.82;;;6.82;;
43311;SDS011;30041;48.300;16.352;2023-09-12T09:38:50;9.80;;;6.60;;
43311;SDS011;30041;48.300;16.352;2023-09-12T09:41:19;9.15;;;6.75;;
43311;SDS011;30041;48.300;16.352;2023-09-12T09:43:45;9.30;;;7.22;;
43311;SDS011;30041;48.300;16.352;2023-09-12T09:46:15;10.68;;;7.60;;
43311;SDS011;30041;48.300;16.352;2023-09-12T09:48:41;11.20;;;7.70;;
43311;SDS011;30041;48.300;16.352;2023-09-12T09:51:14;10.38;;;7.43;;
43311;SDS011;30041;48.300;16.352;2023-09-12T09:53:39;12.05;;;8.20;;
43311;SDS011;30041;48.300;16.352;2023-09-12T09:56:09;10.10;;;7.78;;
43311;SDS011;30041;48.300;16.352;2023-09-12T09:58:51;10.13;;;7.35;;
43311;SDS011;30041;48.300;16.352;2023-09-12T10:01:19;12.60;;;9.13;;
43311;SDS011;30041;48.300;16.352;2023-09-12T10:03:46;14.68;;;9.00;;
43311;SDS011;30041;48.300;16.352;2023-09-12T10:06:13;12.95;;;9.43;;
43311;SDS011;30041;48.300;16.352;2023-09-12T10:08:40;12.95;;;9.32;;
43311;SDS011;30041;48.300;16.352;2023-09-12T10:11:09;11.75;;;8.75;;
43311;SDS011;30041;48.300;16.352;2023-09-12T10:13:35;11.57;;;8.73;;
43311;SDS011;30041;48.300;16.352;2023-09-12T10:16:02;13.35;;;9.00;;
43311;SDS011;30041;48.300;16.352;2023-09-12T10:18:29;13.43;;;8.50;;
43311;SDS011;30041;48.300;16.352;2023-09-12T10:21:20;11.68;;;8.38;;
43311;SDS011;30041;48.300;16.352;2023-09-12T10:23:51;16.02;;;9.18;;
43311;SDS011;30041;48.300;16.352;2023-09-12T10:26:16;16.92;;;10.65;;
43311;SDS011;30041;48.300;16.352;2023-09-12T10:28:42;17.00;;;11.30;;
43311;SDS011;30041;48.300;16.352;2023-09-12T10:31:08;16.88;;;10.35;;
43311;SDS011;30041;48.300;16.352;2023-09-12T10:33:36;15.30;;;10.90;;
43311;SDS011;30041;48.300;16.352;2023-09-12T10:36:05;18.77;;;11.50;;
43311;SDS011;30041;48.300;16.352;2023-09-12T10:38:33;17.50;;;10.98;;
43311;SDS011;30041;48.300;16.352;2023-09-12T10:41:05;14.82;;;10.85;;
43311;SDS011;30041;48.300;16.352;2023-09-12T10:43:33;19.55;;;10.77;;
43311;SDS011;30041;48.300;16.352;2023-09-12T10:46:01;15.10;;;10.95;;
43311;SDS011;30041;48.300;16.352;2023-09-12T10:48:26;17.70;;;11.35;;
43311;SDS011;30041;48.300;16.352;2023-09-12T10:50:52;17.38;;;11.63;;
43311;SDS011;30041;48.300;16.352;2023-09-12T10:53:17;15.35;;;10.68;;
43311;SDS011;30041;48.300;16.352;2023-09-12T10:55:57;17.77;;;11.55;;
43311;SDS011;30041;48.300;16.352;2023-09-12T11:01:28;21.23;;;11.57;;
43311;SDS011;30041;48.300;16.352;2023-09-12T11:03:55;16.75;;;11.50;;
43311;SDS011;30041;48.300;16.352;2023-09-12T11:06:21;12.68;;;9.55;;
43311;SDS011;30041;48.300;16.352;2023-09-12T11:11:55;17.90;;;10.18;;
43311;SDS011;30041;48.300;16.352;2023-09-12T11:14:26;13.90;;;10.50;;
43311;SDS011;30041;48.300;16.352;2023-09-12T11:19:47;17.02;;;11.13;;
43311;SDS011;30041;48.300;16.352;2023-09-12T11:22:21;12.77;;;11.10;;
43311;SDS011;30041;48.300;16.352;2023-09-12T11:24:50;13.90;;;11.18;;
43311;SDS011;30041;48.300;16.352;2023-09-12T11:27:16;15.57;;;11.18;;
43311;SDS011;30041;48.300;16.352;2023-09-12T11:29:41;11.48;;;10.18;;
43311;SDS011;30041;48.300;16.352;2023-09-12T11:32:07;15.02;;;11.15;;
43311;SDS011;30041;48.300;16.352;2023-09-12T11:34:51;12.75;;;11.10;;
43311;SDS011;30041;48.300;16.352;2023-09-12T11:37:24;15.02;;;11.18;;
43311;SDS011;30041;48.300;16.352;2023-09-12T11:39:51;13.50;;;10.98;;
43311;SDS011;30041;48.300;16.352;2023-09-12T11:42:16;13.85;;;10.52;;
43311;SDS011;30041;48.300;16.352;2023-09-12T11:44:42;16.00;;;11.07;;
43311;SDS011;30041;48.300;16.352;2023-09-12T11:47:08;19.52;;;11.07;;
43311;SDS011;30041;48.300;16.352;2023-09-12T11:49:40;18.67;;;11.63;;
43311;SDS011;30041;48.300;16.352;2023-09-12T11:52:09;14.05;;;10.95;;
43311;SDS011;30041;48.300;16.352;2023-09-12T11:54:36;14.93;;;10.77;;
43311;SDS011;30041;48.300;16.352;2023-09-12T11:57:02;16.50;;;11.43;;
43311;SDS011;30041;48.300;16.352;2023-09-12T11:59:31;13.68;;;10.15;;
43311;SDS011;30041;48.300;16.352;2023-09-12T12:01:56;14.20;;;10.88;;
43311;SDS011;30041;48.300;16.352;2023-09-12T12:04:23;13.10;;;10.52;;
43311;SDS011;30041;48.300;16.352;2023-09-12T12:06:50;16.10;;;10.10;;
43311;SDS011;30041;48.300;16.352;2023-09-12T12:09:16;12.77;;;10.52;;
43311;SDS011;30041;48.300;16.352;2023-09-12T12:11:42;14.23;;;9.95;;
43311;SDS011;30041;48.300;16.352;2023-09-12T12:14:09;12.30;;;9.68;;
43311;SDS011;30041;48.300;16.352;2023-09-12T12:16:41;11.85;;;9.65;;
43311;SDS011;30041;48.300;16.352;2023-09-12T12:19:11;11.98;;;9.40;;
43311;SDS011;30041;48.300;16.352;2023-09-12T12:21:38;14.80;;;9.63;;
43311;SDS011;30041;48.300;16.352;2023-09-12T12:24:07;10.65;;;9.30;;
43311;SDS011;30041;48.300;16.352;2023-09-12T12:26:33;10.98;;;9.57;;
43311;SDS011;30041;48.300;16.352;2023-09-12T12:29:02;9.73;;;8.43;;
43311;SDS011;30041;48.300;16.352;2023-09-12T12:31:29;11.80;;;9.30;;
43311;SDS011;30041;48.300;16.352;2023-09-12T12:33:55;11.57;;;9.75;;
43311;SDS011;30041;48.300;16.352;2023-09-12T12:36:21;11.35;;;9.00;;
43311;SDS011;30041;48.300;16.352;2023-09-12T12:38:48;13.55;;;9.27;;
43311;SDS011;30041;48.300;16.352;2023-09-12T12:41:21;12.23;;;9.35;;
43311;SDS011;30041;48.300;16.352;2023-09-12T12:43:53;10.40;;;8.57;;
43311;SDS011;30041;48.300;16.352;2023-09-12T12:46:21;12.20;;;8.80;;
43311;SDS011;30041;48.300;16.352;2023-09-12T12:48:47;11.70;;;8.80;;
43311;SDS011;30041;48.300;16.352;2023-09-12T12:53:47;9.68;;;8.63;;
43311;SDS011;30041;48.300;16.352;2023-09-12T12:56:18;10.05;;;7.97;;
43311;SDS011;30041;48.300;16.352;2023-09-12T12:58:57;16.15;;;8.98;;
43311;SDS011;30041;48.300;16.352;2023-09-12T13:01:24;11.13;;;8.15;;
43311;SDS011;30041;48.300;16.352;2023-09-12T13:03:50;9.38;;;8.23;;
43311;SDS011;30041;48.300;16.352;2023-09-12T13:06:16;10.90;;;8.18;;
43311;SDS011;30041;48.300;16.352;2023-09-12T13:08:46;10.77;;;8.60;;
43311;SDS011;30041;48.300;16.352;2023-09-12T13:11:12;12.93;;;8.38;;
43311;SDS011;30041;48.300;16.352;2023-09-12T13:13:39;10.93;;;8.68;;
43311;SDS011;30041;48.300;16.352;2023-09-12T13:16:05;12.30;;;8.18;;
43311;SDS011;30041;48.300;16.352;2023-09-12T13:18:32;11.02;;;7.63;;
43311;SDS011;30041;48.300;16.352;2023-09-12T13:20:58;9.50;;;7.30;;
43311;SDS011;30041;48.300;16.352;2023-09-12T13:23:24;11.48;;;8.13;;
43311;SDS011;30041;48.300;16.352;2023-09-12T13:25:49;13.60;;;8.05;;
43311;SDS011;30041;48.300;16.352;2023-09-12T13:28:15;10.73;;;7.75;;
43311;SDS011;30041;48.300;16.352;2023-09-12T13:30:40;11.27;;;7.40;;
43311;SDS011;30041;48.300;16.352;2023-09-12T13:33:06;11.35;;;7.78;;
43311;SDS011;30041;48.300;16.352;2023-09-12T13:35:32;9.48;;;7.18;;
43311;SDS011;30041;48.300;16.352;2023-09-12T13:37:57;11.40;;;7.32;;
43311;SDS011;30041;48.300;16.352;2023-09-12T13:40:23;11.35;;;7.28;;
43311;SDS011;30041;48.300;16.352;2023-09-12T13:42:48;9.10;;;6.95;;
43311;SDS011;30041;48.300;16.352;2023-09-12T13:45:13;12.35;;;6.82;;
43311;SDS011;30041;48.300;16.352;2023-09-12T13:47:39;9.18;;;6.97;;
43311;SDS011;30041;48.300;16.352;2023-09-12T13:50:05;8.80;;;6.88;;
43311;SDS011;30041;48.300;16.352;2023-09-12T13:52:30;12.30;;;6.22;;
43311;SDS011;30041;48.300;16.352;2023-09-12T13:54:56;10.20;;;6.80;;
43311;SDS011;30041;48.300;16.352;2023-09-12T13:57:21;9.38;;;6.07;;
43311;SDS011;30041;48.300;16.352;2023-09-12T13:59:47;8.63;;;6.28;;
43311;SDS011;30041;48.300;16.352;2023-09-12T14:02:12;8.43;;;6.13;;
43311;SDS011;30041;48.300;16.352;2023-09-12T14:04:38;8.80;;;6.40;;
43311;SDS011;30041;48.300;16.352;2023-09-12T14:07:03;10.10;;;6.03;;
43311;SDS011;30041;48.300;16.352;2023-09-12T14:09:29;10.15;;;6.13;;
43311;SDS011;30041;48.300;16.352;2023-09-12T14:11:55;10.65;;;6.13;;
43311;SDS011;30041;48.300;16.352;2023-09-12T14:14:20;9.40;;;6.57;;
43311;SDS011;30041;48.300;16.352;2023-09-12T14:16:45;10.45;;;6.57;;
43311;SDS011;30041;48.300;16.352;2023-09-12T14:19:11;10.38;;;6.85;;
43311;SDS011;30041;48.300;16.352;2023-09-12T14:21:37;8.90;;;6.80;;
43311;SDS011;30041;48.300;16.352;2023-09-12T14:24:02;13.25;;;6.70;;
43311;SDS011;30041;48.300;16.352;2023-09-12T14:26:28;10.57;;;7.00;;
43311;SDS011;30041;48.300;16.352;2023-09-12T14:28:54;11.50;;;6.97;;
43311;SDS011;30041;48.300;16.352;2023-09-12T14:31:19;8.93;;;5.90;;
43311;SDS011;30041;48.300;16.352;2023-09-12T14:33:45;7.47;;;5.97;;
43311;SDS011;30041;48.300;16.352;2023-09-12T14:36:11;12.52;;;6.85;;
43311;SDS011;30041;48.300;16.352;2023-09-12T14:38:36;10.27;;;6.68;;
43311;SDS011;30041;48.300;16.352;2023-09-12T14:41:01;12.00;;;6.45;;
43311;SDS011;30041;48.300;16.352;2023-09-12T14:43:27;9.80;;;6.57;;